Time;durP1;ratioP1;P1;durP2;ratioP2;P2;SDS_P1;SDS_P2;PMS_P1;PMS_P2;Temp;Humidity;BMP_temperature;BMP_pressure;BME280_temperature;BME280_humidity;BME280_pressure;Samples;Min_cycle;Max_cycle;Signal;HPM_P1;HPM_P2
2024/04/28 00:00:55;;;;;;;17.70;8.70;;;;;;;14.50;44.24;100718.46;110971;1206;99036;-71
2024/04/28 00:03:21;;;;;;;14.90;8.20;;;;;;;14.47;44.30;100719.34;110973;1205;138245;-71
2024/04/28 00:05:46;;;;;;;18.50;8.20;;;;;;;14.43;44.47;100718.67;111024;1205;99031;-71
2024/04/28 00:08:11;;;;;;;14.70;7.60;;;;;;;14.41;44.52;100715.73;111055;1206;98983;-71
2024/04/28 00:10:36;;;;;;;14.30;8.20;;;;;;;14.38;44.61;100716.65;110825;1210;138115;-71
2024/04/28 00:13:01;;;;;;;13.90;8.30;;;;;;;14.33;44.71;100716.73;111012;1205;99094;-71
2024/04/28 00:15:27;;;;;;;17.00;8.30;;;;;;;14.29;44.80;100715.34;110977;1211;139659;-71
2024/04/28 00:17:52;;;;;;;15.90;8.40;;;;;;;14.25;44.88;100715.55;111004;1206;99067;-71
2024/04/28 00:20:17;;;;;;;18.80;9.00;;;;;;;14.22;44.98;100712.66;111123;1205;98232;-71
2024/04/28 00:22:42;;;;;;;15.40;8.40;;;;;;;14.20;45.07;100714.27;110908;1206;138370;-72
2024/04/28 00:25:07;;;;;;;15.40;8.70;;;;;;;14.16;45.18;100720.61;111160;1211;99026;-70
2024/04/28 00:27:32;;;;;;;19.50;8.30;;;;;;;14.12;45.23;100719.59;110907;1205;138411;-70
2024/04/28 00:29:58;;;;;;;17.30;9.30;;;;;;;14.09;45.40;100718.30;111159;1211;97809;-72
2024/04/28 00:32:23;;;;;;;13.90;7.70;;;;;;;14.07;45.44;100719.16;111090;1205;99656;-73
2024/04/28 00:34:48;;;;;;;21.00;9.20;;;;;;;14.01;45.57;100720.00;110905;1210;139146;-73
2024/04/28 00:37:13;;;;;;;15.50;8.70;;;;;;;13.97;45.69;100720.02;111125;1205;97502;-73
2024/04/28 00:39:38;;;;;;;15.20;8.10;;;;;;;13.93;45.77;100725.09;110904;1210;138383;-73
2024/04/28 00:42:04;;;;;;;17.50;9.60;;;;;;;13.92;45.91;100725.52;111113;1206;99432;-71
2024/04/28 00:44:29;;;;;;;17.00;9.00;;;;;;;13.89;46.09;100727.48;111030;1206;99622;-71
2024/04/28 00:46:54;;;;;;;19.20;9.40;;;;;;;13.86;46.12;100725.69;111028;1206;139648;-70
2024/04/28 00:49:20;;;;;;;16.30;9.30;;;;;;;13.84;46.24;100722.96;111081;1211;99020;-72
2024/04/28 00:51:46;;;;;;;17.30;8.70;;;;;;;13.80;46.35;100726.05;110898;1206;138347;-72
2024/04/28 00:54:11;;;;;;;16.80;9.20;;;;;;;13.77;46.45;100722.11;111084;1211;98996;-72
2024/04/28 00:56:37;;;;;;;17.70;9.50;;;;;;;13.75;46.62;100722.02;110926;1205;139022;-72
2024/04/28 00:59:03;;;;;;;18.20;8.90;;;;;;;13.72;46.70;100724.89;111153;1211;99048;-72
2024/04/28 01:01:29;;;;;;;19.00;9.60;;;;;;;13.68;46.81;100727.42;111024;1205;98932;-72
2024/04/28 01:03:54;;;;;;;21.50;9.20;;;;;;;13.64;46.94;100728.68;111000;1206;138239;-72
2024/04/28 01:06:20;;;;;;;22.50;9.40;;;;;;;13.62;47.07;100728.66;111117;1211;98949;-72
2024/04/28 01:08:45;;;;;;;20.20;9.70;;;;;;;13.57;47.24;100725.13;110987;1205;138525;-72
2024/04/28 01:11:11;;;;;;;23.40;10.30;;;;;;;13.54;47.40;100728.91;111068;1210;99007;-72
2024/04/28 01:13:36;;;;;;;22.60;10.00;;;;;;;13.51;47.49;100723.88;111080;1205;97441;-72
2024/04/28 01:16:01;;;;;;;19.20;9.40;;;;;;;13.49;47.55;100724.71;110892;1211;138483;-72
2024/04/28 01:18:26;;;;;;;15.00;9.00;;;;;;;13.45;47.73;100727.08;110973;1205;98975;-70
2024/04/28 01:20:54;;;;;;;15.30;8.80;;;;;;;13.43;47.85;100725.05;110948;1211;138433;-71
2024/04/28 01:23:20;;;;;;;17.40;9.90;;;;;;;13.39;47.94;100728.09;111083;1211;112616;-70
2024/04/28 01:25:45;;;;;;;17.80;9.50;;;;;;;13.35;48.10;100723.65;110974;1212;99083;-71
2024/04/28 01:28:10;;;;;;;21.00;9.50;;;;;;;13.31;48.20;100724.04;110922;1206;138674;-71
2024/04/28 01:30:36;;;;;;;22.60;9.60;;;;;;;13.27;48.38;100723.52;110999;1211;98948;-71
2024/04/28 01:33:01;;;;;;;22.40;10.40;;;;;;;13.23;48.39;100721.92;110959;1205;138522;-71
2024/04/28 01:35:26;;;;;;;15.90;9.80;;;;;;;13.20;48.62;100718.16;111097;1211;98978;-71
2024/04/28 01:37:51;;;;;;;17.40;10.00;;;;;;;13.18;48.83;100725.83;111047;1206;100415;-71
2024/04/28 01:40:17;;;;;;;18.70;8.60;;;;;;;13.14;48.86;100724.73;110997;1211;139725;-71
2024/04/28 01:42:42;;;;;;;16.70;9.60;;;;;;;13.11;48.92;100727.40;111014;1205;99454;-71
2024/04/28 01:45:07;;;;;;;21.70;9.80;;;;;;;13.07;49.11;100730.29;110959;1211;138674;-71
2024/04/28 01:47:32;;;;;;;15.90;9.10;;;;;;;13.02;49.24;100726.61;111032;1205;98891;-71
2024/04/28 01:49:57;;;;;;;16.40;10.00;;;;;;;12.99;49.42;100730.58;111092;1211;99273;-71
2024/04/28 01:52:23;;;;;;;15.80;10.00;;;;;;;12.97;49.58;100739.30;110910;1206;139379;-71
2024/04/28 01:54:48;;;;;;;17.90;9.50;;;;;;;12.94;49.67;100742.88;111068;1205;99016;-71
2024/04/28 01:57:13;;;;;;;16.40;9.70;;;;;;;12.92;49.78;100745.12;110839;1211;139175;-71
2024/04/28 01:59:38;;;;;;;17.90;9.80;;;;;;;12.90;49.91;100744.33;111020;1206;100034;-71
2024/04/28 02:02:03;;;;;;;20.90;10.90;;;;;;;12.87;50.00;100745.00;111017;1211;99167;-71
2024/04/28 02:04:30;;;;;;;19.00;10.50;;;;;;;12.84;50.11;100744.80;111023;1206;139078;-71
2024/04/28 02:06:55;;;;;;;22.90;10.50;;;;;;;12.82;50.23;100743.48;111140;1206;99117;-71
2024/04/28 02:09:20;;;;;;;17.60;10.30;;;;;;;12.79;50.46;100745.09;110940;1206;138612;-71
2024/04/28 02:11:45;;;;;;;17.50;10.20;;;;;;;12.76;50.56;100746.30;111066;1205;98222;-71
2024/04/28 02:14:10;;;;;;;17.40;9.90;;;;;;;12.73;50.58;100746.11;111148;1206;98939;-71
2024/04/28 02:16:36;;;;;;;14.90;9.90;;;;;;;12.70;50.73;100746.98;110893;1206;138349;-71
2024/04/28 02:19:01;;;;;;;17.30;9.60;;;;;;;12.67;50.90;100746.40;111150;1211;99105;-71
2024/04/28 02:21:26;;;;;;;21.40;10.90;;;;;;;12.62;51.02;100748.09;110992;1205;138438;-71
2024/04/28 02:23:51;;;;;;;16.60;10.50;;;;;;;12.59;51.15;100747.15;111124;1211;99004;-71
2024/04/28 02:26:16;;;;;;;17.10;10.40;;;;;;;12.58;51.24;100746.66;111079;1205;97061;-71
2024/04/28 02:28:41;;;;;;;19.40;11.90;;;;;;;12.56;51.36;100748.73;110982;1209;138408;-71
2024/04/28 02:31:07;;;;;;;19.90;11.00;;;;;;;12.53;51.46;100748.52;111089;1205;99013;-71
2024/04/28 02:33:32;;;;;;;15.60;10.20;;;;;;;12.52;51.62;100755.41;110888;1218;139168;-71
2024/04/28 02:35:57;;;;;;;19.20;10.40;;;;;;;12.48;51.77;100751.11;111094;1205;99052;-71
2024/04/28 02:38:22;;;;;;;18.30;10.10;;;;;;;12.45;51.88;100749.10;111081;1211;98999;-71
2024/04/28 02:40:47;;;;;;;16.60;10.50;;;;;;;12.43;51.96;100748.16;111098;1206;138347;-71
2024/04/28 02:43:13;;;;;;;20.60;11.00;;;;;;;12.41;52.15;100752.90;111055;1205;99147;-71
2024/04/28 02:51:04;;;;;;;14.90;10.50;;;;;;;12.29;52.50;100748.44;110963;1206;138709;-71
2024/04/28 02:53:29;;;;;;;21.70;11.30;;;;;;;12.27;52.59;100746.23;111032;1206;99515;-71
2024/04/28 02:55:54;;;;;;;18.40;10.60;;;;;;;12.25;52.70;100748.48;111058;1205;98960;-71
2024/04/28 02:58:19;;;;;;;24.00;10.90;;;;;;;12.24;52.92;100750.11;110942;1206;138214;-71
2024/04/28 03:00:44;;;;;;;19.50;11.30;;;;;;;12.23;52.90;100748.42;110987;1206;98935;-71
2024/04/28 03:03:10;;;;;;;19.30;10.80;;;;;;;12.20;53.10;100745.83;110943;1211;138583;-71
2024/04/28 03:05:35;;;;;;;19.10;11.30;;;;;;;12.18;53.21;100746.84;110941;1206;99068;-71
2024/04/28 03:08:00;;;;;;;21.80;12.00;;;;;;;12.16;53.28;100748.02;110911;1210;112661;-71
2024/04/28 03:10:25;;;;;;;23.60;11.80;;;;;;;12.13;53.46;100745.85;110799;1205;138621;-71
2024/04/28 03:12:50;;;;;;;24.10;12.50;;;;;;;12.11;53.61;100743.10;110877;1211;99099;-71
2024/04/28 03:15:16;;;;;;;16.90;10.60;;;;;;;12.06;53.70;100744.03;110967;1211;139075;-71
2024/04/28 03:17:41;;;;;;;17.80;11.70;;;;;;;12.05;53.77;100740.86;111103;1211;99035;-71
2024/04/28 03:20:07;;;;;;;19.80;12.20;;;;;;;12.04;53.91;100738.77;111038;1211;97618;-71
2024/04/28 03:22:32;;;;;;;16.60;11.40;;;;;;;12.01;54.00;100736.22;110999;1206;139361;-71
2024/04/28 03:24:57;;;;;;;21.40;12.10;;;;;;;11.98;54.21;100735.98;111032;1206;109877;-71
2024/04/28 03:27:24;;;;;;;19.60;12.10;;;;;;;11.95;54.32;100737.01;110925;1211;139340;-71
2024/04/28 03:29:49;;;;;;;23.80;12.60;;;;;;;11.93;54.32;100738.17;111024;1211;100119;-71
2024/04/28 03:32:14;;;;;;;28.90;12.70;;;;;;;11.93;54.58;100741.77;111076;1211;99312;-71
2024/04/28 03:34:39;;;;;;;21.30;13.30;;;;;;;11.92;54.53;100744.89;110880;1205;138399;-71
2024/04/28 03:37:04;;;;;;;21.20;12.10;;;;;;;11.89;54.67;100742.15;111096;1211;98967;-71
2024/04/28 03:39:29;;;;;;;25.10;12.10;;;;;;;11.87;54.76;100743.34;110906;1206;138359;-71
2024/04/28 03:41:55;;;;;;;18.50;11.80;;;;;;;11.84;54.90;100740.42;111081;1211;99039;-71
2024/04/28 03:44:20;;;;;;;22.50;11.30;;;;;;;11.81;54.96;100738.93;111065;1206;98945;-71
2024/04/28 03:46:45;;;;;;;20.70;12.90;;;;;;;11.79;55.05;100743.16;110918;1205;139590;-71
2024/04/28 03:49:10;;;;;;;23.00;12.20;;;;;;;11.78;55.28;100742.48;111063;1210;99476;-71
2024/04/28 03:51:35;;;;;;;23.80;11.90;;;;;;;11.77;55.37;100746.65;110945;1206;139642;-71
2024/04/28 03:54:01;;;;;;;20.80;12.60;;;;;;;11.76;55.45;100746.31;111123;1211;99158;-71
2024/04/28 03:56:26;;;;;;;21.00;12.40;;;;;;;11.76;55.50;100741.31;111063;1211;98941;-71
2024/04/28 03:58:52;;;;;;;26.50;14.00;;;;;;;11.77;55.67;100745.56;110994;1205;140286;-71
2024/04/28 04:01:17;;;;;;;19.60;12.40;;;;;;;11.77;55.70;100737.88;111086;1210;99053;-71
2024/04/28 04:03:42;;;;;;;21.60;13.10;;;;;;;11.77;55.87;100743.77;111010;1206;139162;-71
2024/04/28 04:06:08;;;;;;;23.20;13.10;;;;;;;11.77;55.91;100753.30;111120;1206;99028;-71
2024/04/28 04:08:33;;;;;;;23.70;13.50;;;;;;;11.74;56.08;100748.19;111072;1211;99028;-72
2024/04/28 04:10:58;;;;;;;22.40;13.10;;;;;;;11.73;56.15;100750.05;111115;1205;139729;-73
2024/04/28 04:13:23;;;;;;;24.00;14.20;;;;;;;11.70;56.22;100749.96;111180;1206;99100;-73
2024/04/28 04:15:49;;;;;;;24.30;14.00;;;;;;;11.70;56.28;100751.05;111029;1211;138416;-73
2024/04/28 04:18:14;;;;;;;25.70;13.70;;;;;;;11.71;56.35;100752.09;111115;1205;99052;-73
2024/04/28 04:20:39;;;;;;;24.40;13.60;;;;;;;11.70;56.43;100755.70;110977;1206;100421;-73
2024/04/28 04:23:04;;;;;;;20.90;13.40;;;;;;;11.70;56.51;100753.58;111046;1206;138446;-73
2024/04/28 04:25:30;;;;;;;27.20;13.70;;;;;;;11.69;56.51;100750.05;111059;1205;99047;-73
2024/04/28 04:27:55;;;;;;;26.60;14.90;;;;;;;11.68;56.71;100756.70;111000;1209;138507;-73
2024/04/28 04:30:20;;;;;;;24.50;14.10;;;;;;;11.68;56.84;100754.74;111048;1211;99004;-73
2024/04/28 04:32:45;;;;;;;22.10;14.20;;;;;;;11.68;56.87;100757.25;111012;1207;138414;-73
2024/04/28 04:35:10;;;;;;;23.20;13.70;;;;;;;11.67;56.92;100756.77;111107;1206;98959;-73
2024/04/28 04:37:36;;;;;;;23.30;14.10;;;;;;;11.66;56.97;100759.32;111032;1211;98997;-73
2024/04/28 04:40:01;;;;;;;23.30;13.30;;;;;;;11.66;57.07;100755.73;110993;1209;139644;-73
2024/04/28 04:42:28;;;;;;;20.00;12.80;;;;;;;11.67;57.21;100755.16;111051;1211;99099;-71
2024/04/28 04:44:53;;;;;;;21.70;14.50;;;;;;;11.67;57.23;100761.04;110910;1211;139889;-71
2024/04/28 04:47:18;;;;;;;30.70;13.40;;;;;;;11.68;57.40;100760.27;111061;1205;99029;-71
2024/04/28 04:49:43;;;;;;;19.50;12.70;;;;;;;11.70;57.44;100759.29;111050;1210;99000;-71
2024/04/28 04:52:09;;;;;;;20.40;12.70;;;;;;;11.73;57.57;100758.27;111027;1205;139112;-71
2024/04/28 04:54:34;;;;;;;23.10;13.60;;;;;;;11.77;57.65;100758.82;111007;1210;99877;-71
2024/04/28 04:56:59;;;;;;;21.20;13.70;;;;;;;11.80;57.66;100754.77;110988;1206;139392;-71
2024/04/28 04:59:24;;;;;;;19.80;12.60;;;;;;;11.81;57.78;100753.98;111053;1212;99068;-71
2024/04/28 05:01:50;;;;;;;17.40;11.50;;;;;;;11.84;57.77;100754.95;111020;1206;98945;-71
2024/04/28 05:04:15;;;;;;;19.30;12.90;;;;;;;11.86;57.81;100751.77;110990;1212;138630;-71
2024/04/28 05:06:40;;;;;;;26.50;12.90;;;;;;;11.89;57.94;100749.87;111064;1206;101246;-71
2024/04/28 05:09:05;;;;;;;20.70;12.60;;;;;;;11.92;57.91;100746.48;111020;1210;139319;-70
2024/04/28 05:11:31;;;;;;;20.60;11.60;;;;;;;11.94;57.93;100742.25;110962;1211;99054;-71
2024/04/28 05:13:56;;;;;;;21.30;12.10;;;;;;;11.96;57.95;100743.98;111066;1206;98983;-71
2024/04/28 05:16:21;;;;;;;19.30;12.50;;;;;;;11.97;58.01;100742.29;110915;1211;139031;-71
2024/04/28 05:18:46;;;;;;;18.60;12.50;;;;;;;11.99;58.08;100740.23;111001;1206;98938;-71
2024/04/28 05:21:11;;;;;;;23.30;11.60;;;;;;;12.01;58.10;100739.77;110947;1211;138715;-71
2024/04/28 05:23:36;;;;;;;21.20;11.50;;;;;;;12.03;58.04;100738.60;110978;1206;97276;-72
2024/04/28 05:26:02;;;;;;;19.10;11.90;;;;;;;12.06;58.10;100741.34;111106;1206;98974;-72
2024/04/28 05:28:27;;;;;;;23.30;11.40;;;;;;;12.09;58.07;100739.40;110955;1208;138230;-71
2024/04/28 05:30:52;;;;;;;16.70;10.40;;;;;;;12.12;58.12;100742.31;111094;1211;99381;-72
2024/04/28 05:33:17;;;;;;;20.70;11.20;;;;;;;12.16;58.12;100745.36;110919;1205;138859;-71
2024/04/28 05:35:42;;;;;;;16.90;10.90;;;;;;;12.19;58.14;100745.04;111141;1206;99039;-73
2024/04/28 05:38:08;;;;;;;21.90;11.10;;;;;;;12.21;58.23;100742.41;111031;1206;99057;-71
2024/04/28 05:40:33;;;;;;;20.40;10.80;;;;;;;12.24;58.22;100740.83;110876;1206;138486;-71
2024/04/28 05:42:58;;;;;;;23.20;11.10;;;;;;;12.27;58.29;100739.42;110954;1211;99043;-71
2024/04/28 05:45:24;;;;;;;18.00;10.40;;;;;;;12.31;58.33;100741.38;110819;1205;140511;-71
2024/04/28 05:47:49;;;;;;;18.80;11.20;;;;;;;12.35;58.29;100739.56;111077;1212;99002;-72
2024/04/28 05:50:14;;;;;;;16.30;10.50;;;;;;;12.39;58.37;100742.45;111027;1210;98939;-70
2024/04/28 05:52:39;;;;;;;16.30;10.60;;;;;;;12.43;58.41;100742.77;110973;1205;139067;-72
2024/04/28 05:55:04;;;;;;;15.10;10.50;;;;;;;12.49;58.48;100748.38;111050;1210;99029;-73
2024/04/28 05:57:30;;;;;;;13.30;9.70;;;;;;;12.55;58.47;100748.60;110916;1207;139748;-71
2024/04/28 05:59:55;;;;;;;16.70;9.70;;;;;;;12.60;58.48;100744.92;111097;1211;99578;-71
2024/04/28 06:02:20;;;;;;;18.00;9.50;;;;;;;12.67;58.57;100743.71;110993;1205;98939;-70
2024/04/28 06:04:45;;;;;;;18.10;9.30;;;;;;;12.73;58.58;100734.97;111020;1210;138253;-70
2024/04/28 06:07:10;;;;;;;17.30;10.00;;;;;;;12.81;58.57;100734.23;111106;1206;99463;-71
2024/04/28 06:09:35;;;;;;;17.50;9.70;;;;;;;12.88;58.61;100737.06;110999;1211;139173;-71
2024/04/28 06:12:03;;;;;;;20.10;9.90;;;;;;;12.94;58.53;100730.27;111046;1206;98942;-71
2024/04/28 06:14:28;;;;;;;18.60;8.80;;;;;;;13.01;58.58;100730.96;111038;1212;98988;-70
2024/04/28 06:16:54;;;;;;;16.20;9.30;;;;;;;13.07;58.56;100729.23;111007;1206;140285;-71
2024/04/28 06:19:19;;;;;;;14.10;9.00;;;;;;;13.13;58.47;100729.42;111147;1211;100684;-71
2024/04/28 06:21:45;;;;;;;19.50;10.30;;;;;;;13.20;58.53;100731.27;110913;1206;140119;-70
2024/04/28 06:24:10;;;;;;;15.30;9.50;;;;;;;13.27;58.45;100729.27;111138;1206;99353;-70
2024/04/28 06:26:35;;;;;;;13.40;8.50;;;;;;;13.35;58.51;100727.80;111060;1211;99448;-71
2024/04/28 06:29:00;;;;;;;12.90;8.70;;;;;;;13.43;58.43;100716.95;110965;1211;138316;-70
2024/04/28 06:31:26;;;;;;;12.00;7.60;;;;;;;13.51;58.39;100720.23;111142;1211;99112;-70
2024/04/28 06:33:51;;;;;;;10.60;7.50;;;;;;;13.60;58.35;100723.91;110887;1206;138652;-71
2024/04/28 06:36:16;;;;;;;14.30;8.10;;;;;;;13.67;58.35;100719.95;111143;1211;99007;-70
2024/04/28 06:38:42;;;;;;;15.40;9.00;;;;;;;13.75;58.36;100718.98;110860;1207;138964;-71
2024/04/28 06:41:07;;;;;;;18.90;8.60;;;;;;;13.83;58.32;100713.64;111044;1206;99362;-71
2024/04/28 06:43:32;;;;;;;16.30;8.90;;;;;;;13.91;58.30;100713.70;111140;1207;98928;-71
2024/04/28 06:45:57;;;;;;;14.80;8.00;;;;;;;13.99;58.24;100712.04;110891;1211;138997;-70
2024/04/28 06:48:22;;;;;;;11.60;8.10;;;;;;;14.05;58.24;100712.21;111089;1206;99435;-70
2024/04/28 06:50:48;;;;;;;13.50;7.10;;;;;;;14.12;58.22;100706.98;110879;1212;139080;-71
2024/04/28 06:53:13;;;;;;;14.30;7.30;;;;;;;14.18;58.20;100700.85;111063;1206;99060;-71
2024/04/28 06:55:38;;;;;;;15.00;7.60;;;;;;;14.24;58.12;100698.74;111009;1212;99036;-70
2024/04/28 06:58:03;;;;;;;11.20;7.40;;;;;;;14.28;58.11;100699.91;110995;1206;138394;-70
2024/04/28 07:00:29;;;;;;;15.70;7.90;;;;;;;14.35;58.10;100698.83;111019;1210;99634;-71
2024/04/28 07:02:56;;;;;;;11.70;7.00;;;;;;;14.41;58.04;100700.27;110866;1206;138420;-71
2024/04/28 07:05:22;;;;;;;12.80;6.70;;;;;;;14.47;58.02;100702.98;111000;1211;99088;-70
2024/04/28 07:07:47;;;;;;;12.60;6.70;;;;;;;14.54;57.93;100694.66;111118;1206;97410;-70
2024/04/28 07:10:12;;;;;;;12.30;6.40;;;;;;;14.60;57.90;100693.59;110988;1211;138154;-71
2024/04/28 07:12:37;;;;;;;20.60;7.90;;;;;;;14.67;57.80;100693.03;111057;1206;99240;-71
2024/04/28 07:15:03;;;;;;;10.70;6.20;;;;;;;14.74;57.86;100696.38;110949;1210;139202;-71
2024/04/28 07:17:28;;;;;;;11.30;6.10;;;;;;;14.82;57.75;100694.27;111081;1207;97471;-71
2024/04/28 07:19:53;;;;;;;10.20;6.00;;;;;;;14.89;57.68;100697.61;111140;1212;98976;-71
2024/04/28 07:22:19;;;;;;;14.80;6.40;;;;;;;14.98;57.71;100704.61;111004;1206;138258;-71
2024/04/28 07:24:44;;;;;;;10.70;6.70;;;;;;;15.07;57.68;100704.42;111099;1212;99063;-71
2024/04/28 07:27:09;;;;;;;11.30;5.50;;;;;;;15.16;57.63;100706.56;110911;1206;138713;-71
2024/04/28 07:29:35;;;;;;;9.90;6.50;;;;;;;15.25;57.55;100705.14;110845;1206;98932;-71
2024/04/28 07:32:00;;;;;;;11.30;5.50;;;;;;;15.34;57.49;100700.42;111053;1211;99033;-71
2024/04/28 07:34:25;;;;;;;10.20;5.30;;;;;;;15.43;57.49;100699.13;110863;1206;138408;-71
2024/04/28 07:36:50;;;;;;;9.40;5.80;;;;;;;15.53;57.34;100698.48;110962;1210;99455;-71
2024/04/28 07:39:15;;;;;;;7.70;5.30;;;;;;;15.62;57.36;100701.71;110802;1222;138629;-71
2024/04/28 07:41:40;;;;;;;10.60;6.00;;;;;;;15.71;57.23;100701.84;110889;1206;98986;-71
2024/04/28 07:44:06;;;;;;;8.70;5.00;;;;;;;15.80;57.20;100704.90;110972;1206;98267;-71
2024/04/28 07:46:32;;;;;;;7.70;4.80;;;;;;;15.87;57.07;100701.55;111000;1212;138235;-71
2024/04/28 07:48:57;;;;;;;7.30;4.70;;;;;;;15.95;57.04;100699.06;111080;1206;98843;-71
2024/04/28 07:51:22;;;;;;;4.80;4.00;;;;;;;16.02;56.99;100700.58;110950;1212;138957;-71
2024/04/28 07:53:47;;;;;;;9.10;4.60;;;;;;;16.09;56.91;100701.35;111002;1206;99010;-71
2024/04/28 07:56:12;;;;;;;10.00;4.80;;;;;;;16.18;56.89;100696.48;111043;1212;99116;-71
2024/04/28 07:58:37;;;;;;;6.10;4.40;;;;;;;16.27;56.79;100692.41;110980;1206;138755;-71
2024/04/28 08:01:04;;;;;;;9.40;4.50;;;;;;;16.35;56.73;100693.34;111057;1212;99767;-71
2024/04/28 08:03:29;;;;;;;11.90;4.10;;;;;;;16.43;56.65;100689.71;110885;1208;139761;-71
2024/04/28 08:05:54;;;;;;;9.70;4.50;;;;;;;16.51;56.50;100688.85;111112;1212;98926;-71
2024/04/28 08:08:19;;;;;;;11.10;4.40;;;;;;;16.58;56.34;100695.23;111018;1206;97797;-71
2024/04/28 08:10:44;;;;;;;19.60;3.80;;;;;;;16.67;56.33;100697.17;110936;1212;138467;-71
2024/04/28 08:13:10;;;;;;;10.00;3.50;;;;;;;16.75;56.10;100694.67;111033;1206;99026;-71
2024/04/28 08:15:35;;;;;;;7.50;3.10;;;;;;;16.81;55.96;100693.67;110887;1206;138503;-71
2024/04/28 08:18:00;;;;;;;7.30;3.50;;;;;;;16.85;55.84;100694.65;111050;1206;98997;-71
2024/04/28 08:20:25;;;;;;;10.50;3.40;;;;;;;16.91;55.72;100693.93;111001;1206;102171;-71
2024/04/28 08:22:50;;;;;;;7.10;3.00;;;;;;;16.95;55.58;100698.72;110913;1206;144602;-72
2024/04/28 08:25:16;;;;;;;7.30;3.30;;;;;;;17.00;55.56;100702.31;111043;1206;99467;-71
2024/04/28 08:27:41;;;;;;;11.60;2.90;;;;;;;17.07;55.26;100696.94;110929;1207;137935;-71
2024/04/28 08:30:07;;;;;;;9.30;3.80;;;;;;;17.14;55.15;100695.93;110970;1206;98988;-72
2024/04/28 08:32:32;;;;;;;10.60;3.10;;;;;;;17.21;54.99;100698.33;111057;1206;98668;-71
2024/04/28 08:34:57;;;;;;;7.30;3.00;;;;;;;17.28;54.90;100704.67;111034;1206;138833;-71
2024/04/28 08:37:22;;;;;;;12.60;2.60;;;;;;;17.35;54.68;100707.11;111072;1206;99037;-71
2024/04/28 08:39:48;;;;;;;5.10;3.00;;;;;;;17.43;54.60;100701.27;110953;1206;139078;-72
2024/04/28 08:42:13;;;;;;;13.10;2.80;;;;;;;17.52;54.37;100693.90;110992;1206;98815;-71
2024/04/28 08:44:39;;;;;;;8.40;2.90;;;;;;;17.63;54.45;100699.48;111015;1211;99097;-71
2024/04/28 08:47:07;;;;;;;10.80;2.90;;;;;;;17.74;54.27;100697.05;111032;1206;137840;-71
2024/04/28 08:49:34;;;;;;;8.10;2.40;;;;;;;17.83;54.06;100690.47;110987;1212;98710;-71
2024/04/28 08:52:02;;;;;;;8.90;2.80;;;;;;;17.93;53.91;100692.83;110891;1206;138826;-72
2024/04/28 08:54:27;;;;;;;6.90;2.30;;;;;;;18.01;53.79;100691.34;111001;1207;98931;-71
2024/04/28 08:56:55;;;;;;;7.40;2.30;;;;;;;18.07;53.57;100686.67;110911;1212;140501;-71
2024/04/28 08:59:20;;;;;;;14.90;3.00;;;;;;;18.13;53.33;100686.27;111027;1207;98948;-72
2024/04/28 09:01:47;;;;;;;9.30;2.60;;;;;;;18.17;53.26;100685.26;111008;1206;98923;-71
2024/04/28 09:04:15;;;;;;;10.30;2.70;;;;;;;18.21;53.25;100684.95;110994;1210;139599;-72
2024/04/28 09:06:47;;;;;;;3.00;1.80;;;;;;;18.27;53.02;100687.55;110978;1206;97800;-71
2024/04/28 09:09:12;;;;;;;11.20;2.60;;;;;;;18.35;52.84;100695.25;110926;1212;138866;-72
2024/04/28 09:11:38;;;;;;;9.40;2.90;;;;;;;18.42;52.62;100695.45;111038;1211;99027;-72
2024/04/28 09:14:03;;;;;;;9.30;2.80;;;;;;;18.46;52.53;100691.11;111085;1206;99000;-71
2024/04/28 09:16:29;;;;;;;5.20;2.20;;;;;;;18.50;52.49;100686.89;110875;1206;138084;-72
2024/04/28 09:18:55;;;;;;;8.70;2.70;;;;;;;18.51;52.35;100688.42;111008;1212;98949;-71
2024/04/28 09:21:20;;;;;;;5.90;2.10;;;;;;;18.54;52.33;100686.63;110952;1206;138814;-72
2024/04/28 09:23:45;;;;;;;7.40;2.00;;;;;;;18.55;52.12;100691.52;110949;1212;99051;-72
2024/04/28 09:26:11;;;;;;;5.50;1.80;;;;;;;18.58;51.95;100689.69;111106;1206;98989;-71
2024/04/28 09:28:37;;;;;;;8.90;1.90;;;;;;;18.63;51.88;100686.14;110901;1206;137883;-72
2024/04/28 09:31:03;;;;;;;10.50;1.90;;;;;;;18.67;51.68;100691.23;111082;1210;99426;-72
2024/04/28 09:33:30;;;;;;;7.40;1.60;;;;;;;18.72;51.44;100694.30;110935;1206;138335;-71
2024/04/28 09:35:56;;;;;;;7.10;2.10;;;;;;;18.76;51.33;100693.40;111041;1207;99054;-72
2024/04/28 09:38:26;;;;;;;6.50;2.10;;;;;;;18.80;51.27;100687.84;111080;1212;97410;-72
2024/04/28 09:40:52;;;;;;;5.90;1.70;;;;;;;18.85;51.22;100687.88;110902;1211;138836;-72
2024/04/28 09:43:18;;;;;;;7.70;1.60;;;;;;;18.90;51.10;100678.56;111028;1206;98907;-72
2024/04/28 09:45:47;;;;;;;7.90;2.00;;;;;;;18.96;51.06;100673.60;110856;1212;138224;-72
2024/04/28 09:48:14;;;;;;;5.20;1.80;;;;;;;19.03;50.84;100671.19;110936;1210;99052;-72
2024/04/28 09:50:40;;;;;;;3.70;1.60;;;;;;;19.12;50.86;100672.52;110944;1206;98938;-71
2024/04/28 09:53:06;;;;;;;5.50;1.70;;;;;;;19.23;50.73;100667.70;110901;1212;138163;-72
2024/04/28 09:55:35;;;;;;;4.60;1.80;;;;;;;19.31;50.54;100672.45;111124;1206;99010;-72
2024/04/28 09:58:02;;;;;;;6.10;1.70;;;;;;;19.38;50.39;100672.56;110977;1207;138191;-72
2024/04/28 10:00:28;;;;;;;20.30;2.10;;;;;;;19.48;50.41;100667.44;111035;1206;98957;-72
2024/04/28 10:02:57;;;;;;;20.80;2.30;;;;;;;19.58;50.32;100672.52;111009;1212;138282;-72
2024/04/28 10:05:23;;;;;;;7.50;1.40;;;;;;;19.67;50.12;100677.58;111038;1212;99115;-72
2024/04/28 10:07:49;;;;;;;9.30;1.80;;;;;;;19.74;49.98;100682.94;111012;1206;98945;-71
2024/04/28 10:10:16;;;;;;;6.80;1.60;;;;;;;19.82;49.78;100682.15;110905;1212;138041;-72
2024/04/28 10:12:43;;;;;;;4.80;1.70;;;;;;;19.87;49.62;100679.57;111027;1211;99824;-72
2024/04/28 10:15:09;;;;;;;8.20;1.60;;;;;;;19.90;49.53;100682.17;110852;1212;139582;-72
2024/04/28 10:17:34;;;;;;;9.00;1.80;;;;;;;19.96;49.37;100685.38;110995;1206;98926;-72
2024/04/28 10:20:07;;;;;;;17.10;2.00;;;;;;;19.99;49.27;100684.15;111060;1211;99099;-72
2024/04/28 10:22:38;;;;;;;5.10;1.80;;;;;;;20.02;49.08;100679.63;110852;1210;140556;-72
2024/04/28 10:25:11;;;;;;;5.00;2.20;;;;;;;20.05;48.95;100679.55;110957;1211;99028;-72
2024/04/28 10:27:38;;;;;;;9.80;1.50;;;;;;;20.06;48.82;100674.85;110870;1206;138852;-72
2024/04/28 10:30:04;;;;;;;4.90;1.60;;;;;;;20.08;48.70;100671.23;111025;1206;98922;-72
2024/04/28 10:32:30;;;;;;;3.40;1.70;;;;;;;20.10;48.68;100670.36;111049;1206;99058;-72
2024/04/28 10:34:56;;;;;;;6.90;1.80;;;;;;;20.10;48.58;100667.61;111012;1206;138569;-72
2024/04/28 10:37:22;;;;;;;5.60;2.30;;;;;;;20.12;48.50;100665.90;111102;1206;98920;-72
2024/04/28 10:39:49;;;;;;;10.00;2.20;;;;;;;20.14;48.39;100663.72;110914;1212;138582;-72
2024/04/28 10:42:15;;;;;;;8.00;3.00;;;;;;;20.18;48.20;100661.41;111062;1206;98899;-72
2024/04/28 10:44:41;;;;;;;9.20;2.40;;;;;;;20.23;48.12;100655.34;111085;1212;99135;-72
2024/04/28 10:47:07;;;;;;;11.10;2.00;;;;;;;20.29;48.07;100652.13;110925;1206;139200;-72
2024/04/28 10:49:33;;;;;;;10.20;2.20;;;;;;;20.34;47.88;100655.30;111074;1210;99117;-72
2024/04/28 10:51:59;;;;;;;7.30;1.40;;;;;;;20.41;47.83;100656.02;111049;1206;139039;-72
2024/04/28 10:54:24;;;;;;;9.80;2.00;;;;;;;20.48;47.85;100661.06;111096;1212;99163;-72
2024/04/28 10:56:50;;;;;;;4.80;1.60;;;;;;;20.54;47.70;100662.02;110863;1206;139102;-72
2024/04/28 10:59:15;;;;;;;8.40;2.60;;;;;;;20.58;47.44;100658.20;111066;1206;98997;-71
2024/04/28 11:01:42;;;;;;;6.70;1.80;;;;;;;20.64;47.37;100660.77;110935;1212;98933;-72